sensor_id;sensor_type;location;lat;lon;timestamp;pressure;altitude;pressure_sealevel;temperature;humidity
38716;BME280;24833;49.324;8.694;2023-04-10T00:00:34;100396.31;;;9.33;53.57
38716;BME280;24833;49.324;8.694;2023-04-10T00:03:03;100398.50;;;9.30;53.74
38716;BME280;24833;49.324;8.694;2023-04-10T00:05:31;100397.00;;;9.27;53.35
38716;BME280;24833;49.324;8.694;2023-04-10T00:07:58;100389.00;;;9.27;53.52
38716;BME280;24833;49.324;8.694;2023-04-10T00:10:25;100379.72;;;9.23;54.41
38716;BME280;24833;49.324;8.694;2023-04-10T00:12:55;100378.19;;;9.20;53.71
38716;BME280;24833;49.324;8.694;2023-04-10T00:15:22;100376.03;;;9.16;54.14
38716;BME280;24833;49.324;8.694;2023-04-10T00:17:49;100377.88;;;9.15;54.33
38716;BME280;24833;49.324;8.694;2023-04-10T00:20:21;100378.22;;;9.12;54.30
38716;BME280;24833;49.324;8.694;2023-04-10T00:22:49;100370.41;;;9.11;54.63
38716;BME280;24833;49.324;8.694;2023-04-10T00:25:16;100376.75;;;9.10;54.38
38716;BME280;24833;49.324;8.694;2023-04-10T00:27:43;100377.06;;;9.07;54.81
38716;BME280;24833;49.324;8.694;2023-04-10T00:30:10;100372.75;;;9.06;54.38
38716;BME280;24833;49.324;8.694;2023-04-10T00:32:37;100377.44;;;9.04;54.21
38716;BME280;24833;49.324;8.694;2023-04-10T00:35:05;100384.91;;;9.00;54.27
38716;BME280;24833;49.324;8.694;2023-04-10T00:37:32;100378.75;;;8.99;53.70
38716;BME280;24833;49.324;8.694;2023-04-10T00:39:59;100388.59;;;8.99;54.61
38716;BME280;24833;49.324;8.694;2023-04-10T00:42:26;100392.44;;;8.96;54.41
38716;BME280;24833;49.324;8.694;2023-04-10T00:44:53;100383.75;;;8.94;54.05
38716;BME280;24833;49.324;8.694;2023-04-10T00:47:21;100382.09;;;8.93;54.02
38716;BME280;24833;49.324;8.694;2023-04-10T00:49:48;100389.25;;;8.93;54.69
38716;BME280;24833;49.324;8.694;2023-04-10T00:52:15;100389.25;;;8.93;54.21
38716;BME280;24833;49.324;8.694;2023-04-10T00:54:42;100401.75;;;8.92;54.33
38716;BME280;24833;49.324;8.694;2023-04-10T00:57:09;100386.94;;;8.90;55.34
38716;BME280;24833;49.324;8.694;2023-04-10T00:59:37;100393.25;;;8.89;54.62
38716;BME280;24833;49.324;8.694;2023-04-10T01:02:04;100399.75;;;8.86;54.89
38716;BME280;24833;49.324;8.694;2023-04-10T01:04:32;100398.94;;;8.86;54.49
38716;BME280;24833;49.324;8.694;2023-04-10T01:10:26;100394.63;;;8.77;56.06
38716;BME280;24833;49.324;8.694;2023-04-10T01:15:46;100386.31;;;8.71;54.88
38716;BME280;24833;49.324;8.694;2023-04-10T01:21:04;100379.00;;;8.65;54.66
38716;BME280;24833;49.324;8.694;2023-04-10T01:29:19;100380.84;;;8.57;54.92
38716;BME280;24833;49.324;8.694;2023-04-10T01:31:56;100377.47;;;8.55;54.64
38716;BME280;24833;49.324;8.694;2023-04-10T01:34:31;100381.16;;;8.54;54.43
38716;BME280;24833;49.324;8.694;2023-04-10T01:37:03;100387.81;;;8.50;54.29
38716;BME280;24833;49.324;8.694;2023-04-10T01:39:36;100387.31;;;8.46;54.73
38716;BME280;24833;49.324;8.694;2023-04-10T01:42:06;100390.97;;;8.45;55.75
38716;BME280;24833;49.324;8.694;2023-04-10T01:44:41;100385.97;;;8.42;55.08
38716;BME280;24833;49.324;8.694;2023-04-10T01:47:11;100387.97;;;8.40;54.78
38716;BME280;24833;49.324;8.694;2023-04-10T01:49:41;100393.47;;;8.38;54.43
38716;BME280;24833;49.324;8.694;2023-04-10T01:52:14;100391.94;;;8.36;54.52
38716;BME280;24833;49.324;8.694;2023-04-10T01:54:47;100388.59;;;8.34;55.28
38716;BME280;24833;49.324;8.694;2023-04-10T01:57:21;100384.47;;;8.31;54.76
38716;BME280;24833;49.324;8.694;2023-04-10T01:59:52;100389.78;;;8.31;54.54
38716;BME280;24833;49.324;8.694;2023-04-10T02:02:19;100391.78;;;8.29;54.80
38716;BME280;24833;49.324;8.694;2023-04-10T02:04:46;100384.13;;;8.26;55.61
38716;BME280;24833;49.324;8.694;2023-04-10T02:07:28;100383.47;;;8.24;55.63
38716;BME280;24833;49.324;8.694;2023-04-10T02:10:16;100390.75;;;8.22;54.46
38716;BME280;24833;49.324;8.694;2023-04-10T02:12:52;100393.59;;;8.20;55.49
38716;BME280;24833;49.324;8.694;2023-04-10T02:15:23;100400.91;;;8.18;54.87
38716;BME280;24833;49.324;8.694;2023-04-10T02:17:54;100385.78;;;8.19;55.50
38716;BME280;24833;49.324;8.694;2023-04-10T02:20:23;100377.13;;;8.17;56.18
38716;BME280;24833;49.324;8.694;2023-04-10T02:22:50;100373.66;;;8.16;56.36
38716;BME280;24833;49.324;8.694;2023-04-10T02:25:18;100382.47;;;8.17;55.74
38716;BME280;24833;49.324;8.694;2023-04-10T02:27:47;100363.97;;;8.15;55.94
38716;BME280;24833;49.324;8.694;2023-04-10T02:30:14;100363.16;;;8.15;55.88
38716;BME280;24833;49.324;8.694;2023-04-10T02:32:43;100370.47;;;8.13;55.81
38716;BME280;24833;49.324;8.694;2023-04-10T02:35:11;100366.16;;;8.12;56.19
38716;BME280;24833;49.324;8.694;2023-04-10T02:37:37;100357.34;;;8.11;56.00
38716;BME280;24833;49.324;8.694;2023-04-10T02:40:07;100367.16;;;8.11;56.75
38716;BME280;24833;49.324;8.694;2023-04-10T02:42:43;100363.81;;;8.09;56.54
38716;BME280;24833;49.324;8.694;2023-04-10T02:45:10;100365.81;;;8.07;56.16
38716;BME280;24833;49.324;8.694;2023-04-10T02:47:41;100368.63;;;8.05;56.62
38716;BME280;24833;49.324;8.694;2023-04-10T02:50:09;100371.47;;;8.04;56.46
38716;BME280;24833;49.324;8.694;2023-04-10T02:52:39;100358.31;;;8.02;57.03
38716;BME280;24833;49.324;8.694;2023-04-10T02:55:06;100372.47;;;8.03;56.96
38716;BME280;24833;49.324;8.694;2023-04-10T02:57:36;100360.13;;;8.02;57.44
38716;BME280;24833;49.324;8.694;2023-04-10T03:00:03;100363.13;;;7.99;58.01
38716;BME280;24833;49.324;8.694;2023-04-10T03:02:51;100367.13;;;7.95;58.01
38716;BME280;24833;49.324;8.694;2023-04-10T03:05:20;100366.13;;;7.96;57.70
38716;BME280;24833;49.324;8.694;2023-04-10T03:07:47;100361.31;;;7.91;57.44
38716;BME280;24833;49.324;8.694;2023-04-10T03:10:14;100361.63;;;7.88;57.73
38716;BME280;24833;49.324;8.694;2023-04-10T03:12:41;100360.47;;;7.82;57.93
38716;BME280;24833;49.324;8.694;2023-04-10T03:15:08;100360.78;;;7.79;58.29
38716;BME280;24833;49.324;8.694;2023-04-10T03:17:35;100362.09;;;7.75;57.96
38716;BME280;24833;49.324;8.694;2023-04-10T03:20:05;100365.75;;;7.74;58.15
38716;BME280;24833;49.324;8.694;2023-04-10T03:22:33;100360.75;;;7.71;57.42
38716;BME280;24833;49.324;8.694;2023-04-10T03:25:00;100354.78;;;7.69;58.30
38716;BME280;24833;49.324;8.694;2023-04-10T03:27:29;100349.78;;;7.66;58.64
38716;BME280;24833;49.324;8.694;2023-04-10T03:29:57;100344.81;;;7.63;57.91
38716;BME280;24833;49.324;8.694;2023-04-10T03:32:24;100343.13;;;7.62;58.32
38716;BME280;24833;49.324;8.694;2023-04-10T03:34:53;100331.66;;;7.61;58.94
38716;BME280;24833;49.324;8.694;2023-04-10T03:37:20;100336.47;;;7.58;58.48
38716;BME280;24833;49.324;8.694;2023-04-10T03:39:47;100331.16;;;7.58;59.22
38716;BME280;24833;49.324;8.694;2023-04-10T03:42:14;100334.81;;;7.57;58.73
38716;BME280;24833;49.324;8.694;2023-04-10T03:44:41;100318.19;;;7.55;59.12
38716;BME280;24833;49.324;8.694;2023-04-10T03:47:09;100318.34;;;7.53;58.16
38716;BME280;24833;49.324;8.694;2023-04-10T03:49:36;100306.41;;;7.49;59.42
38716;BME280;24833;49.324;8.694;2023-04-10T03:52:05;100303.22;;;7.46;59.87
38716;BME280;24833;49.324;8.694;2023-04-10T03:54:32;100302.88;;;7.41;60.01
38716;BME280;24833;49.324;8.694;2023-04-10T03:56:59;100303.88;;;7.40;60.08
38716;BME280;24833;49.324;8.694;2023-04-10T03:59:27;100309.53;;;7.36;58.78
38716;BME280;24833;49.324;8.694;2023-04-10T04:02:06;100315.13;;;7.33;59.49
38716;BME280;24833;49.324;8.694;2023-04-10T04:04:34;100306.50;;;7.31;58.89
38716;BME280;24833;49.324;8.694;2023-04-10T04:07:18;100311.16;;;7.29;59.84
38716;BME280;24833;49.324;8.694;2023-04-10T04:10:13;100307.97;;;7.26;59.48
38716;BME280;24833;49.324;8.694;2023-04-10T04:12:50;100297.34;;;7.26;59.72
38716;BME280;24833;49.324;8.694;2023-04-10T04:15:24;100311.63;;;7.25;58.94
38716;BME280;24833;49.324;8.694;2023-04-10T04:17:57;100318.09;;;7.22;58.96
38716;BME280;24833;49.324;8.694;2023-04-10T04:20:34;100305.78;;;7.21;59.48
38716;BME280;24833;49.324;8.694;2023-04-10T04:23:19;100312.09;;;7.20;60.14
38716;BME280;24833;49.324;8.694;2023-04-10T04:26:05;100311.94;;;7.22;60.05
38716;BME280;24833;49.324;8.694;2023-04-10T04:28:50;100309.44;;;7.20;59.53
38716;BME280;24833;49.324;8.694;2023-04-10T04:31:25;100304.97;;;7.21;59.70
38716;BME280;24833;49.324;8.694;2023-04-10T04:34:06;100314.75;;;7.20;59.68
38716;BME280;24833;49.324;8.694;2023-04-10T04:37:03;100315.59;;;7.21;59.74
38716;BME280;24833;49.324;8.694;2023-04-10T04:39:37;100314.75;;;7.20;59.14
38716;BME280;24833;49.324;8.694;2023-04-10T04:42:15;100316.41;;;7.21;59.55
38716;BME280;24833;49.324;8.694;2023-04-10T04:45:00;100326.72;;;7.24;60.09
38716;BME280;24833;49.324;8.694;2023-04-10T04:47:46;100324.38;;;7.21;59.68
38716;BME280;24833;49.324;8.694;2023-04-10T04:50:18;100320.91;;;7.21;60.03
38716;BME280;24833;49.324;8.694;2023-04-10T04:52:54;100324.72;;;7.18;59.87
38716;BME280;24833;49.324;8.694;2023-04-10T04:55:33;100330.69;;;7.20;60.52
38716;BME280;24833;49.324;8.694;2023-04-10T04:58:23;100325.38;;;7.20;60.86
38716;BME280;24833;49.324;8.694;2023-04-10T05:01:00;100329.88;;;7.20;59.98
38716;BME280;24833;49.324;8.694;2023-04-10T05:03:50;100325.38;;;7.20;60.21
38716;BME280;24833;49.324;8.694;2023-04-10T05:06:53;100320.75;;;7.22;60.41
38716;BME280;24833;49.324;8.694;2023-04-10T05:09:47;100325.38;;;7.20;60.18
38716;BME280;24833;49.324;8.694;2023-04-10T05:12:33;100326.06;;;7.22;60.79
38716;BME280;24833;49.324;8.694;2023-04-10T05:15:16;100330.38;;;7.23;60.48
38716;BME280;24833;49.324;8.694;2023-04-10T05:18:01;100327.03;;;7.21;60.16
38716;BME280;24833;49.324;8.694;2023-04-10T05:20:46;100332.34;;;7.21;60.34
38716;BME280;24833;49.324;8.694;2023-04-10T05:23:23;100336.69;;;7.22;60.34
38716;BME280;24833;49.324;8.694;2023-04-10T05:25:53;100331.53;;;7.21;60.74
38716;BME280;24833;49.324;8.694;2023-04-10T05:28:40;100332.69;;;7.18;60.66
38716;BME280;24833;49.324;8.694;2023-04-10T05:31:26;100328.38;;;7.17;60.79
38716;BME280;24833;49.324;8.694;2023-04-10T05:33:59;100332.03;;;7.16;61.59
38716;BME280;24833;49.324;8.694;2023-04-10T05:36:50;100324.06;;;7.16;61.07
38716;BME280;24833;49.324;8.694;2023-04-10T05:39:21;100332.16;;;7.15;60.75
38716;BME280;24833;49.324;8.694;2023-04-10T05:42:11;100329.50;;;7.15;61.24
38716;BME280;24833;49.324;8.694;2023-04-10T05:44:52;100340.28;;;7.13;61.48
38716;BME280;24833;49.324;8.694;2023-04-10T05:47:51;100336.63;;;7.14;61.12
38716;BME280;24833;49.324;8.694;2023-04-10T05:50:37;100334.97;;;7.13;61.93
38716;BME280;24833;49.324;8.694;2023-04-10T05:53:28;100333.97;;;7.14;61.36
38716;BME280;24833;49.324;8.694;2023-04-10T05:56:25;100346.97;;;7.17;61.32
38716;BME280;24833;49.324;8.694;2023-04-10T05:59:27;100336.34;;;7.17;60.67
38716;BME280;24833;49.324;8.694;2023-04-10T06:02:12;100351.09;;;7.20;60.99
38716;BME280;24833;49.324;8.694;2023-04-10T06:04:39;100351.09;;;7.20;61.05
38716;BME280;24833;49.324;8.694;2023-04-10T06:07:07;100344.81;;;7.21;60.92
38716;BME280;24833;49.324;8.694;2023-04-10T06:09:34;100339.34;;;7.22;61.17
38716;BME280;24833;49.324;8.694;2023-04-10T06:12:06;100331.88;;;7.26;61.26
38716;BME280;24833;49.324;8.694;2023-04-10T06:14:34;100335.91;;;7.30;61.33
38716;BME280;24833;49.324;8.694;2023-04-10T06:17:01;100329.09;;;7.35;61.17
38716;BME280;24833;49.324;8.694;2023-04-10T06:19:29;100328.97;;;7.45;61.39
38716;BME280;24833;49.324;8.694;2023-04-10T06:21:56;100332.81;;;7.51;61.22
38716;BME280;24833;49.324;8.694;2023-04-10T06:24:23;100331.16;;;7.58;61.23
38716;BME280;24833;49.324;8.694;2023-04-10T06:26:51;100339.97;;;7.67;61.36
38716;BME280;24833;49.324;8.694;2023-04-10T06:29:17;100328.88;;;7.71;61.20
38716;BME280;24833;49.324;8.694;2023-04-10T06:31:44;100320.41;;;7.76;61.26
38716;BME280;24833;49.324;8.694;2023-04-10T06:34:12;100325.03;;;7.82;61.36
38716;BME280;24833;49.324;8.694;2023-04-10T06:36:49;100320.72;;;7.89;61.17
38716;BME280;24833;49.324;8.694;2023-04-10T06:39:16;100318.25;;;7.96;61.33
38716;BME280;24833;49.324;8.694;2023-04-10T06:41:43;100311.97;;;8.05;60.76
38716;BME280;24833;49.324;8.694;2023-04-10T06:44:22;100318.09;;;8.13;60.96
38716;BME280;24833;49.324;8.694;2023-04-10T06:46:49;100312.13;;;8.19;61.02
38716;BME280;24833;49.324;8.694;2023-04-10T06:49:16;100318.59;;;8.25;60.63
38716;BME280;24833;49.324;8.694;2023-04-10T06:51:44;100316.31;;;8.38;60.37
38716;BME280;24833;49.324;8.694;2023-04-10T06:54:11;100326.28;;;8.44;60.63
38716;BME280;24833;49.324;8.694;2023-04-10T06:56:38;100320.75;;;8.54;60.82
38716;BME280;24833;49.324;8.694;2023-04-10T06:59:05;100320.91;;;8.61;60.38
38716;BME280;24833;49.324;8.694;2023-04-10T07:01:32;100317.91;;;8.72;60.10
38716;BME280;24833;49.324;8.694;2023-04-10T07:03:59;100308.59;;;8.76;60.40
38716;BME280;24833;49.324;8.694;2023-04-10T07:06:26;100313.88;;;8.84;60.34
38716;BME280;24833;49.324;8.694;2023-04-10T07:08:54;100314.88;;;8.91;60.14
38716;BME280;24833;49.324;8.694;2023-04-10T07:11:21;100300.03;;;8.97;59.85
38716;BME280;24833;49.324;8.694;2023-04-10T07:13:48;100312.31;;;9.06;59.94
38716;BME280;24833;49.324;8.694;2023-04-10T07:16:19;100311.81;;;9.11;59.85
38716;BME280;24833;49.324;8.694;2023-04-10T07:18:46;100313.44;;;9.20;59.54
38716;BME280;24833;49.324;8.694;2023-04-10T07:21:13;100317.56;;;9.31;59.41
38716;BME280;24833;49.324;8.694;2023-04-10T07:23:40;100314.00;;;9.38;59.21
38716;BME280;24833;49.324;8.694;2023-04-10T07:26:08;100321.13;;;9.46;59.16
38716;BME280;24833;49.324;8.694;2023-04-10T07:28:35;100316.38;;;9.64;59.27
38716;BME280;24833;49.324;8.694;2023-04-10T07:31:02;100316.50;;;9.71;59.18
38716;BME280;24833;49.324;8.694;2023-04-10T07:33:29;100312.44;;;9.83;58.82
38716;BME280;24833;49.324;8.694;2023-04-10T07:35:56;100317.13;;;9.96;58.80
38716;BME280;24833;49.324;8.694;2023-04-10T07:38:24;100314.44;;;10.04;58.25
38716;BME280;24833;49.324;8.694;2023-04-10T07:40:58;100321.84;;;10.17;58.59
38716;BME280;24833;49.324;8.694;2023-04-10T07:43:25;100315.75;;;10.31;57.71
38716;BME280;24833;49.324;8.694;2023-04-10T07:45:52;100313.63;;;10.41;56.97
38716;BME280;24833;49.324;8.694;2023-04-10T07:48:19;100323.78;;;10.46;57.17
38716;BME280;24833;49.324;8.694;2023-04-10T07:50:46;100316.50;;;10.54;57.25
38716;BME280;24833;49.324;8.694;2023-04-10T07:53:13;100301.41;;;10.61;56.85
38716;BME280;24833;49.324;8.694;2023-04-10T07:55:44;100313.03;;;10.69;56.73
38716;BME280;24833;49.324;8.694;2023-04-10T07:58:11;100315.16;;;10.73;56.71
38716;BME280;24833;49.324;8.694;2023-04-10T08:00:38;100313.59;;;10.79;57.18
38716;BME280;24833;49.324;8.694;2023-04-10T08:03:05;100308.81;;;10.89;56.70
38716;BME280;24833;49.324;8.694;2023-04-10T08:05:33;100314.25;;;10.96;56.33
38716;BME280;24833;49.324;8.694;2023-04-10T08:08:00;100312.31;;;11.04;56.60
38716;BME280;24833;49.324;8.694;2023-04-10T08:10:27;100323.53;;;11.14;55.68
38716;BME280;24833;49.324;8.694;2023-04-10T08:12:54;100314.78;;;11.21;56.00
38716;BME280;24833;49.324;8.694;2023-04-10T08:15:21;100318.00;;;11.31;55.33
38716;BME280;24833;49.324;8.694;2023-04-10T08:17:48;100315.03;;;11.40;55.18
38716;BME280;24833;49.324;8.694;2023-04-10T08:20:15;100323.59;;;11.51;55.51
38716;BME280;24833;49.324;8.694;2023-04-10T08:22:42;100321.25;;;11.62;55.16
38716;BME280;24833;49.324;8.694;2023-04-10T08:25:09;100314.94;;;11.70;54.57
38716;BME280;24833;49.324;8.694;2023-04-10T08:27:36;100319.13;;;11.72;54.20
38716;BME280;24833;49.324;8.694;2023-04-10T08:30:04;100320.66;;;11.82;53.35
38716;BME280;24833;49.324;8.694;2023-04-10T08:32:31;100311.53;;;11.91;53.22
38716;BME280;24833;49.324;8.694;2023-04-10T08:34:58;100311.75;;;11.96;54.05
38716;BME280;24833;49.324;8.694;2023-04-10T08:37:25;100307.75;;;12.07;52.08
38716;BME280;24833;49.324;8.694;2023-04-10T08:39:52;100299.97;;;12.12;52.10
38716;BME280;24833;49.324;8.694;2023-04-10T08:42:19;100304.38;;;12.19;51.87
38716;BME280;24833;49.324;8.694;2023-04-10T08:44:48;100306.69;;;12.29;51.51
38716;BME280;24833;49.324;8.694;2023-04-10T08:47:20;100301.03;;;12.39;51.68
38716;BME280;24833;49.324;8.694;2023-04-10T08:49:53;100302.78;;;12.53;51.52
38716;BME280;24833;49.324;8.694;2023-04-10T08:52:25;100296.63;;;12.59;50.26
38716;BME280;24833;49.324;8.694;2023-04-10T08:54:56;100287.41;;;12.68;50.37
38716;BME280;24833;49.324;8.694;2023-04-10T08:57:25;100283.56;;;12.77;51.39
38716;BME280;24833;49.324;8.694;2023-04-10T08:59:53;100292.69;;;12.90;49.66
38716;BME280;24833;49.324;8.694;2023-04-10T09:02:23;100276.66;;;12.96;49.37
38716;BME280;24833;49.324;8.694;2023-04-10T09:04:51;100276.28;;;13.06;49.13
38716;BME280;24833;49.324;8.694;2023-04-10T09:07:21;100269.72;;;13.15;50.25
38716;BME280;24833;49.324;8.694;2023-04-10T09:09:49;100274.56;;;13.26;50.04
38716;BME280;24833;49.324;8.694;2023-04-10T09:12:16;100277.06;;;13.34;49.54
38716;BME280;24833;49.324;8.694;2023-04-10T09:14:43;100266.13;;;13.43;48.22
38716;BME280;24833;49.324;8.694;2023-04-10T09:17:22;100268.84;;;13.49;46.43
38716;BME280;24833;49.324;8.694;2023-04-10T09:19:54;100261.63;;;13.50;47.13
38716;BME280;24833;49.324;8.694;2023-04-10T09:22:33;100265.34;;;13.55;46.46
38716;BME280;24833;49.324;8.694;2023-04-10T09:25:03;100256.94;;;13.65;46.71
38716;BME280;24833;49.324;8.694;2023-04-10T09:27:35;100256.72;;;13.73;48.59
38716;BME280;24833;49.324;8.694;2023-04-10T09:30:05;100254.88;;;13.87;48.68
38716;BME280;24833;49.324;8.694;2023-04-10T09:32:42;100245.19;;;13.93;47.64
38716;BME280;24833;49.324;8.694;2023-04-10T09:35:12;100241.25;;;14.02;47.12
38716;BME280;24833;49.324;8.694;2023-04-10T09:37:44;100243.72;;;14.10;47.25
38716;BME280;24833;49.324;8.694;2023-04-10T09:40:24;100238.78;;;14.20;46.38
38716;BME280;24833;49.324;8.694;2023-04-10T09:42:52;100230.28;;;14.30;45.59
38716;BME280;24833;49.324;8.694;2023-04-10T09:45:21;100231.94;;;14.37;45.87
38716;BME280;24833;49.324;8.694;2023-04-10T09:48:06;100221.63;;;14.48;45.28
38716;BME280;24833;49.324;8.694;2023-04-10T09:50:35;100224.91;;;14.50;44.24
38716;BME280;24833;49.324;8.694;2023-04-10T09:53:14;100213.34;;;14.56;46.25
38716;BME280;24833;49.324;8.694;2023-04-10T09:55:42;100217.03;;;14.68;46.09
38716;BME280;24833;49.324;8.694;2023-04-10T09:58:10;100213.69;;;14.79;45.89
38716;BME280;24833;49.324;8.694;2023-04-10T10:00:46;100204.34;;;14.88;46.23
38716;BME280;24833;49.324;8.694;2023-04-10T10:03:18;100204.09;;;14.96;46.31
38716;BME280;24833;49.324;8.694;2023-04-10T10:05:50;100195.97;;;15.10;45.27
38716;BME280;24833;49.324;8.694;2023-04-10T10:08:17;100181.06;;;15.14;45.88
38716;BME280;24833;49.324;8.694;2023-04-10T10:10:52;100180.84;;;15.15;45.79
38716;BME280;24833;49.324;8.694;2023-04-10T10:13:50;100189.28;;;15.25;44.78
38716;BME280;24833;49.324;8.694;2023-04-10T10:16:44;100188.88;;;15.22;45.66
38716;BME280;24833;49.324;8.694;2023-04-10T10:20:01;100170.81;;;15.29;45.55
38716;BME280;24833;49.324;8.694;2023-04-10T10:22:28;100173.25;;;15.37;46.00
38716;BME280;24833;49.324;8.694;2023-04-10T10:24:58;100171.50;;;15.49;45.21
38716;BME280;24833;49.324;8.694;2023-04-10T10:27:29;100166.75;;;15.51;44.35
38716;BME280;24833;49.324;8.694;2023-04-10T10:29:59;100159.88;;;15.56;45.43
38716;BME280;24833;49.324;8.694;2023-04-10T10:32:38;100156.94;;;15.64;44.78
38716;BME280;24833;49.324;8.694;2023-04-10T10:35:07;100159.22;;;15.67;43.89
38716;BME280;24833;49.324;8.694;2023-04-10T10:37:35;100160.56;;;15.76;44.71
38716;BME280;24833;49.324;8.694;2023-04-10T10:40:16;100151.19;;;15.85;44.17
38716;BME280;24833;49.324;8.694;2023-04-10T10:43:09;100151.28;;;15.97;45.01
38716;BME280;24833;49.324;8.694;2023-04-10T10:46:33;100155.06;;;16.14;43.22
38716;BME280;24833;49.324;8.694;2023-04-10T10:49:01;100148.47;;;16.28;43.48
38716;BME280;24833;49.324;8.694;2023-04-10T10:51:50;100145.41;;;16.43;43.12
38716;BME280;24833;49.324;8.694;2023-04-10T10:54:34;100149.16;;;16.60;43.98
38716;BME280;24833;49.324;8.694;2023-04-10T10:57:48;100131.56;;;16.76;46.59
38716;BME280;24833;49.324;8.694;2023-04-10T11:00:15;100130.81;;;16.87;43.61
38716;BME280;24833;49.324;8.694;2023-04-10T11:02:43;100131.81;;;17.05;43.99
38716;BME280;24833;49.324;8.694;2023-04-10T11:05:26;100122.69;;;17.17;42.31
38716;BME280;24833;49.324;8.694;2023-04-10T11:13:40;100123.34;;;17.43;39.66
38716;BME280;24833;49.324;8.694;2023-04-10T11:16:09;100113.75;;;17.47;40.44
38716;BME280;24833;49.324;8.694;2023-04-10T11:21:22;100109.22;;;17.94;42.53
38716;BME280;24833;49.324;8.694;2023-04-10T11:32:06;100091.50;;;18.50;39.22
38716;BME280;24833;49.324;8.694;2023-04-10T11:34:33;100077.19;;;18.78;40.88
38716;BME280;24833;49.324;8.694;2023-04-10T11:37:09;100085.53;;;18.89;38.45
38716;BME280;24833;49.324;8.694;2023-04-10T11:39:36;100063.97;;;18.94;39.40
38716;BME280;24833;49.324;8.694;2023-04-10T11:42:03;100069.59;;;19.21;40.70
38716;BME280;24833;49.324;8.694;2023-04-10T11:44:33;100052.84;;;19.41;40.68
38716;BME280;24833;49.324;8.694;2023-04-10T11:47:11;100062.97;;;19.62;39.96
38716;BME280;24833;49.324;8.694;2023-04-10T11:49:38;100059.91;;;19.75;40.02
38716;BME280;24833;49.324;8.694;2023-04-10T11:52:05;100053.50;;;19.81;39.72
38716;BME280;24833;49.324;8.694;2023-04-10T11:54:32;100052.69;;;19.81;36.73
38716;BME280;24833;49.324;8.694;2023-04-10T11:57:03;100051.88;;;19.80;37.95
38716;BME280;24833;49.324;8.694;2023-04-10T11:59:32;100044.38;;;19.71;37.03
38716;BME280;24833;49.324;8.694;2023-04-10T12:02:13;100043.22;;;19.83;38.29
38716;BME280;24833;49.324;8.694;2023-04-10T12:04:44;100034.88;;;19.68;38.16
38716;BME280;24833;49.324;8.694;2023-04-10T12:07:12;100023.75;;;19.86;38.63
38716;BME280;24833;49.324;8.694;2023-04-10T12:09:39;100026.31;;;19.98;38.46
38716;BME280;24833;49.324;8.694;2023-04-10T12:12:07;100029.84;;;19.99;38.79
38716;BME280;24833;49.324;8.694;2023-04-10T12:14:37;100022.06;;;20.02;38.70
38716;BME280;24833;49.324;8.694;2023-04-10T12:17:07;100021.78;;;19.82;35.94
38716;BME280;24833;49.324;8.694;2023-04-10T12:19:37;100015.56;;;19.65;36.56
38716;BME280;24833;49.324;8.694;2023-04-10T12:22:04;100005.53;;;19.65;38.67
38716;BME280;24833;49.324;8.694;2023-04-10T12:24:50;100002.19;;;19.58;37.56
38716;BME280;24833;49.324;8.694;2023-04-10T12:27:25;100002.19;;;19.75;39.40
38716;BME280;24833;49.324;8.694;2023-04-10T12:29:56;99994.53;;;19.72;37.11
38716;BME280;24833;49.324;8.694;2023-04-10T12:32:24;99990.34;;;19.64;37.63
38716;BME280;24833;49.324;8.694;2023-04-10T12:34:56;99989.88;;;19.67;38.53
38716;BME280;24833;49.324;8.694;2023-04-10T12:37:45;99989.44;;;19.75;38.60
38716;BME280;24833;49.324;8.694;2023-04-10T12:40:13;99985.53;;;19.66;36.71
38716;BME280;24833;49.324;8.694;2023-04-10T12:42:40;99970.28;;;19.60;34.54
38716;BME280;24833;49.324;8.694;2023-04-10T12:45:08;99986.81;;;19.80;36.54
38716;BME280;24833;49.324;8.694;2023-04-10T12:47:45;99972.81;;;19.89;36.75
38716;BME280;24833;49.324;8.694;2023-04-10T12:50:15;99976.78;;;20.03;37.44
38716;BME280;24833;49.324;8.694;2023-04-10T12:52:45;99968.09;;;20.01;36.52
38716;BME280;24833;49.324;8.694;2023-04-10T12:55:26;99957.41;;;20.16;35.96
38716;BME280;24833;49.324;8.694;2023-04-10T12:57:54;99948.41;;;20.10;34.26
38716;BME280;24833;49.324;8.694;2023-04-10T13:00:24;99957.03;;;20.29;36.28
38716;BME280;24833;49.324;8.694;2023-04-10T13:02:51;99947.31;;;20.33;36.72
38716;BME280;24833;49.324;8.694;2023-04-10T13:05:18;99954.41;;;20.61;35.76
38716;BME280;24833;49.324;8.694;2023-04-10T13:07:48;99959.13;;;20.76;34.72
38716;BME280;24833;49.324;8.694;2023-04-10T13:10:18;99951.97;;;20.97;35.91
38716;BME280;24833;49.324;8.694;2023-04-10T13:12:46;99945.88;;;20.80;31.64
38716;BME280;24833;49.324;8.694;2023-04-10T13:15:13;99933.22;;;20.63;32.43
38716;BME280;24833;49.324;8.694;2023-04-10T13:17:40;99936.59;;;20.76;34.58
38716;BME280;24833;49.324;8.694;2023-04-10T13:20:08;99939.69;;;20.89;34.67
38716;BME280;24833;49.324;8.694;2023-04-10T13:22:36;99922.72;;;20.72;33.13
38716;BME280;24833;49.324;8.694;2023-04-10T13:25:04;99928.47;;;20.76;34.36
38716;BME280;24833;49.324;8.694;2023-04-10T13:27:31;99926.44;;;20.61;32.41
38716;BME280;24833;49.324;8.694;2023-04-10T13:29:58;99927.25;;;20.61;34.28
38716;BME280;24833;49.324;8.694;2023-04-10T13:32:25;99915.91;;;20.70;35.63
38716;BME280;24833;49.324;8.694;2023-04-10T13:34:52;99917.28;;;20.67;34.71
38716;BME280;24833;49.324;8.694;2023-04-10T13:37:20;99911.34;;;20.75;36.00
38716;BME280;24833;49.324;8.694;2023-04-10T13:39:47;99908.47;;;20.87;36.15
38716;BME280;24833;49.324;8.694;2023-04-10T13:42:14;99900.78;;;20.79;33.48
38716;BME280;24833;49.324;8.694;2023-04-10T13:44:41;99881.97;;;20.67;32.01
38716;BME280;24833;49.324;8.694;2023-04-10T13:47:08;99891.19;;;20.66;33.85
38716;BME280;24833;49.324;8.694;2023-04-10T13:49:35;99879.69;;;20.54;32.00
38716;BME280;24833;49.324;8.694;2023-04-10T13:52:02;99881.72;;;20.68;33.47
38716;BME280;24833;49.324;8.694;2023-04-10T13:54:29;99880.41;;;20.76;34.56